Weather History for K0E0 - May, 2013

Change the Weather History Date:

Friday, May 24, 2013

  Actual Average (KABQ) Record (KABQ)
Temperature  
Mean Temperature 67 °F 68 °F  
Max Temperature 87 °F 82 °F 96 °F (1984)
Min Temperature 47 °F 55 °F 38 °F (1971)
Degree Days  
Heating Degree Days 0 1  
Month to date heating degree days 65  
Since 1 July heating degree days 4169  
Cooling Degree Days 2 4  
Month to date cooling degree days 55  
Year to date cooling degree days 62  
Growing Degree Days 17 (Base 50)    
Moisture  
Dew Point 35 °F    
Average Humidity 37    
Maximum Humidity 75    
Minimum Humidity 9    
Precipitation  
Precipitation 0.00 in 0.01 in 0.51 in (1959)
Month to date precipitation 0.38  
Year to date precipitation 2.42  
Snow  
Snow 0.00 in - - ()
Month to date snowfall  
Since 1 July snowfall  
Snow Depth -    
Sea Level Pressure  
Sea Level Pressure 30.15 in    
Wind  
Wind Speed 8 mph (SSE)    
Max Wind Speed 23 mph    
Max Gust Speed 33 mph    
Visibility 10 miles    
Events      
T = Trace of Precipitation, MM = Missing Value Source: NWS Daily Summary

Daily Weather History Graph

Daily Weather History Graph

Search for Another Location

Airport or City:

Trip Planner

Search our weather history database for the weather conditions in past years. The results will help you decide how hot, cold, wet, or windy it might be!

Date:

Astronomy

May. 24, 2013 Rise Set
Actual Time 5:54 AM MDT 8:07 PM MDT
Civil Twilight 5:25 AM MDT 8:36 PM MDT
Nautical Twilight 4:50 AM MDT 9:11 PM MDT
Astronomical Twilight 4:12 AM MDT 9:49 PM MDT
Moon 7:53 PM MDT (5/24) 5:27 AM MDT (5/24)
Length of Visible Light 15h 10m
Length of Day
14h 13m
Full, 100% of the Moon is Illuminated
May 24
Full
May 24
Full
May 31
Last Quarter
Jun 8
New
Jun 16
First Quarter

Hourly Weather History & Observations

Time (MDT) Temp. Dew Point Humidity Pressure Visibility Wind Dir Wind Speed Gust Speed Precip Events Conditions
12:15 AM 63.9 °F 40.1 °F 42% 30.09 in 10.0 mi ESE 12.7 mph - N/A   Clear
12:35 AM 63.0 °F 40.5 °F 44% 30.10 in 10.0 mi SSE 8.1 mph - N/A   Clear
12:55 AM 61.5 °F 39.2 °F 44% 30.10 in 10.0 mi South 6.9 mph - N/A   Clear
1:15 AM 58.3 °F 39.0 °F 49% 30.10 in 10.0 mi Calm Calm - N/A   Clear
1:35 AM 55.8 °F 38.3 °F 52% 30.10 in 10.0 mi Calm Calm - N/A   Clear
1:55 AM 55.4 °F 37.9 °F 52% 30.11 in 10.0 mi Calm Calm - N/A   Clear
2:15 AM 52.5 °F 37.8 °F 57% 30.11 in 10.0 mi Calm Calm - N/A   Clear
2:35 AM 49.8 °F 36.1 °F 59% 30.12 in 10.0 mi Calm Calm - N/A   Clear
2:55 AM 47.8 °F 33.3 °F 57% 30.13 in 10.0 mi ENE 4.6 mph - N/A   Clear
3:15 AM 49.1 °F 34.0 °F 56% 30.13 in 10.0 mi ESE 6.9 mph - N/A   Clear
3:35 AM 55.0 °F 38.8 °F 54% 30.14 in 10.0 mi East 5.8 mph - N/A   Clear
3:55 AM 54.7 °F 41.9 °F 62% 30.15 in 10.0 mi East 11.5 mph - N/A   Clear
4:15 AM 55.6 °F 42.8 °F 62% 30.16 in 10.0 mi East 13.8 mph - N/A   Clear
4:35 AM 54.5 °F 42.4 °F 64% 30.16 in 10.0 mi East 11.5 mph - N/A   Clear
4:55 AM 54.3 °F 42.3 °F 64% 30.17 in 10.0 mi East 11.5 mph 21.9 mph N/A   Clear
5:15 AM 53.1 °F 42.1 °F 66% 30.18 in 10.0 mi East 9.2 mph - N/A   Clear
5:35 AM 52.5 °F 42.4 °F 69% 30.19 in 10.0 mi East 8.1 mph - N/A   Clear
5:55 AM 50.9 °F 41.9 °F 71% 30.21 in 10.0 mi ENE 3.5 mph - N/A   Clear
6:15 AM 52.3 °F 43.9 °F 73% 30.22 in 10.0 mi Calm Calm - N/A   Clear
6:35 AM 53.1 °F 45.5 °F 75% 30.22 in 10.0 mi SSE 3.5 mph - N/A   Clear
6:55 AM 54.0 °F 46.2 °F 75% 30.22 in 10.0 mi Calm Calm - N/A   Clear
7:15 AM 55.4 °F 46.4 °F 72% 30.22 in 10.0 mi WSW 3.5 mph - N/A   Clear
7:35 AM 55.9 °F 46.9 °F 72% 30.23 in 10.0 mi SSW 3.5 mph - N/A   Clear
7:55 AM 57.2 °F 47.3 °F 69% 30.23 in 10.0 mi Calm Calm - N/A   Clear
8:15 AM 59.0 °F 47.8 °F 66% 30.23 in 10.0 mi South 3.5 mph - N/A   Clear
8:35 AM 60.3 °F 46.9 °F 61% 30.23 in 10.0 mi Calm Calm - N/A   Clear
8:55 AM 62.2 °F 45.5 °F 54% 30.23 in 10.0 mi SSW 3.5 mph - N/A   Clear
9:15 AM 63.9 °F 43.9 °F 48% 30.23 in 10.0 mi West 3.5 mph - N/A   Clear
9:35 AM 65.5 °F 44.6 °F 47% 30.23 in 10.0 mi Calm Calm - N/A   Clear
9:55 AM 68.7 °F 41.9 °F 38% 30.23 in 10.0 mi SE 4.6 mph - N/A   Clear
10:15 AM 71.2 °F 40.8 °F 33% 30.23 in 10.0 mi SSE 5.8 mph - N/A   Clear
10:35 AM 72.1 °F 39.7 °F 31% 30.22 in 10.0 mi South 5.8 mph - N/A   Clear
10:55 AM 73.2 °F 37.6 °F 27% 30.22 in 10.0 mi South 8.1 mph - N/A   Clear
11:15 AM 75.2 °F 37.4 °F 25% 30.21 in 10.0 mi South 9.2 mph - N/A   Clear
11:35 AM 76.1 °F 36.3 °F 24% 30.21 in 10.0 mi SE 9.2 mph 18.4 mph N/A   Clear
11:55 AM 77.2 °F 35.8 °F 22% 30.21 in 10.0 mi SE 6.9 mph 17.3 mph N/A   Clear
12:15 PM 77.7 °F 34.9 °F 21% 30.19 in 10.0 mi SSW 8.1 mph 17.3 mph N/A   Clear
12:35 PM 80.1 °F 33.8 °F 19% 30.19 in 10.0 mi SSE 16.1 mph 21.9 mph N/A   Clear
12:55 PM 81.7 °F 32.0 °F 17% 30.18 in 10.0 mi South 3.5 mph 27.6 mph N/A   Clear
1:15 PM 83.8 °F 32.0 °F 15% 30.17 in 10.0 mi South 12.7 mph 29.9 mph N/A   Clear
1:35 PM 84.4 °F 30.0 °F 14% 30.15 in 10.0 mi SSE 9.2 mph 23.0 mph N/A   Clear
1:55 PM 84.6 °F 27.1 °F 12% 30.15 in 10.0 mi SSW 12.7 mph 21.9 mph N/A   Clear
2:15 PM 86.0 °F 23.9 °F 10% 30.14 in 10.0 mi SSW 15.0 mph 27.6 mph N/A   Clear
2:35 PM 86.9 °F 23.7 °F 10% 30.14 in 10.0 mi South 12.7 mph 31.1 mph N/A   Clear
2:55 PM 86.2 °F 24.1 °F 10% 30.13 in 10.0 mi SSW 10.4 mph 28.8 mph N/A   Clear
3:15 PM 87.4 °F 22.3 °F 9% 30.12 in 10.0 mi South 23.0 mph 29.9 mph N/A   Clear
3:35 PM 86.9 °F 21.7 °F 9% 30.11 in 10.0 mi South 11.5 mph 27.6 mph N/A   Clear
3:55 PM 86.9 °F 22.8 °F 10% 30.11 in 10.0 mi SSW 13.8 mph 27.6 mph N/A   Clear
4:15 PM 87.3 °F 22.5 °F 9% 30.10 in 10.0 mi South 18.4 mph 33.4 mph N/A   Clear
4:35 PM 85.6 °F 22.8 °F 10% 30.10 in 10.0 mi SW 12.7 mph 17.3 mph N/A   Clear
4:55 PM 87.3 °F 21.9 °F 9% 30.09 in 10.0 mi SSW 19.6 mph 26.5 mph N/A   Clear
5:15 PM 86.7 °F 19.9 °F 9% 30.08 in 10.0 mi South 20.7 mph 29.9 mph N/A   Clear
5:35 PM 86.0 °F 22.5 °F 10% 30.08 in 10.0 mi South 13.8 mph 25.3 mph N/A   Clear
5:55 PM 85.5 °F 21.6 °F 10% 30.08 in 10.0 mi SSW 17.3 mph 21.9 mph N/A   Clear
6:15 PM 85.1 °F 21.7 °F 10% 30.08 in 10.0 mi SSW 17.3 mph 28.8 mph N/A   Clear
6:35 PM 84.2 °F 21.6 °F 10% 30.07 in 10.0 mi SSW 13.8 mph - N/A   Clear
6:55 PM 83.3 °F 19.6 °F 9% 30.07 in 10.0 mi SSW 18.4 mph 24.2 mph N/A   Clear
7:15 PM 82.0 °F 20.1 °F 10% 30.07 in 10.0 mi South 17.3 mph - N/A   Clear
7:35 PM 79.7 °F 19.9 °F 11% 30.08 in 10.0 mi SSW 13.8 mph - N/A   Clear
7:55 PM 76.6 °F 18.1 °F 11% 30.08 in 10.0 mi South 10.4 mph - N/A   Clear
8:15 PM 72.5 °F 17.8 °F 13% 30.10 in 10.0 mi SE 11.5 mph - N/A   Clear
8:35 PM 73.6 °F 41.2 °F 31% 30.10 in 10.0 mi SE 21.9 mph 29.9 mph N/A   Clear
8:55 PM 72.0 °F 41.2 °F 33% 30.10 in 10.0 mi SSE 18.4 mph 23.0 mph N/A   Clear
9:15 PM 70.9 °F 41.4 °F 34% 30.10 in 10.0 mi SE 16.1 mph - N/A   Clear
9:35 PM 69.8 °F 40.1 °F 34% 30.12 in 10.0 mi SSE 17.3 mph - N/A   Clear
9:55 PM 68.2 °F 41.2 °F 37% 30.13 in 10.0 mi SSE 16.1 mph - N/A   Clear
10:15 PM 66.9 °F 42.3 °F 41% 30.13 in 10.0 mi SSE 15.0 mph - N/A   Clear
10:35 PM 66.2 °F 43.5 °F 44% 30.14 in 10.0 mi SSE 15.0 mph - N/A   Clear
10:55 PM 65.5 °F 43.7 °F 45% 30.14 in 10.0 mi SSE 12.7 mph - N/A   Clear
11:15 PM 61.3 °F 42.3 °F 50% 30.15 in 10.0 mi South 9.2 mph - N/A   Clear
11:35 PM 59.7 °F 42.4 °F 53% 30.14 in 10.0 mi South 10.4 mph - N/A   Clear
11:55 PM 59.0 °F 42.1 °F 53% 30.14 in 10.0 mi SSW 10.4 mph - N/A   Clear